Time;durP1;ratioP1;P1;durP2;ratioP2;P2;SDS_P1;SDS_P2;PMS_P1;PMS_P2;Temp;Humidity;BMP_temperature;BMP_pressure;BME280_temperature;BME280_humidity;BME280_pressure;Samples;Min_cycle;Max_cycle;Signal;HPM_P1;HPM_P2
2021/12/31 00:00:38;;;;;;;8.38;4.57;;;13.70;99.90;;;;;;5003643;28;20505;-80
2021/12/31 00:03:05;;;;;;;8.98;4.85;;;13.70;99.90;;;;;;5016121;28;21499;-80
2021/12/31 00:05:34;;;;;;;10.82;4.65;;;13.70;99.90;;;;;;5006638;28;20072;-80
2021/12/31 00:08:01;;;;;;;8.13;3.90;;;13.70;99.90;;;;;;5020616;28;20017;-82
2021/12/31 00:10:27;;;;;;;8.32;4.20;;;13.70;99.90;;;;;;4978899;28;20449;-81
2021/12/31 00:12:56;;;;;;;9.40;4.20;;;13.70;99.90;;;;;;5021042;28;20037;-81
2021/12/31 00:15:23;;;;;;;7.15;3.65;;;13.60;99.90;;;;;;5022591;28;20033;-81
2021/12/31 00:17:50;;;;;;;7.78;3.65;;;13.70;99.90;;;;;;4989732;28;20036;-81
2021/12/31 00:20:20;;;;;;;7.60;3.03;;;13.70;99.90;;;;;;5017386;28;20045;-82
2021/12/31 00:25:20;;;;;;;6.55;3.40;;;13.70;99.90;;;;;;5032859;28;20045;-82
2021/12/31 00:27:47;;;;;;;6.22;2.70;;;13.60;99.90;;;;;;5004829;28;20033;-82
2021/12/31 00:30:14;;;;;;;6.47;2.67;;;13.60;99.90;;;;;;5020490;28;20485;-82
2021/12/31 00:32:41;;;;;;;7.05;3.13;;;13.70;99.90;;;;;;5008425;28;20033;-84
2021/12/31 00:35:08;;;;;;;6.63;3.53;;;13.70;99.90;;;;;;4989103;28;20033;-82
2021/12/31 00:37:37;;;;;;;9.40;3.47;;;13.70;99.90;;;;;;5015911;28;20041;-83
2021/12/31 00:40:08;;;;;;;8.45;3.17;;;13.70;99.90;;;;;;5019898;28;20029;-82
2021/12/31 00:42:35;;;;;;;8.25;3.50;;;13.70;99.90;;;;;;5018209;28;20048;-83
2021/12/31 00:45:03;;;;;;;10.05;2.35;;;13.70;99.90;;;;;;5003699;28;20029;-81
2021/12/31 00:47:29;;;;;;;7.15;2.42;;;13.70;99.90;;;;;;4989916;28;20744;-81
2021/12/31 00:49:56;;;;;;;6.28;2.05;;;13.70;99.90;;;;;;5004215;28;20029;-82
2021/12/31 00:52:22;;;;;;;6.93;2.28;;;13.70;99.90;;;;;;5002525;28;20033;-81
2021/12/31 00:54:51;;;;;;;9.60;2.97;;;13.70;99.90;;;;;;5006692;28;20384;-81
2021/12/31 00:57:18;;;;;;;8.60;2.80;;;13.60;99.90;;;;;;5004679;28;20033;-81
2021/12/31 00:59:44;;;;;;;6.32;1.92;;;13.70;99.90;;;;;;5007030;28;20039;-81
2021/12/31 01:02:12;;;;;;;7.97;2.70;;;13.70;99.90;;;;;;5017575;28;20049;-82
2021/12/31 01:04:42;;;;;;;7.45;2.00;;;13.70;99.90;;;;;;4986675;28;20049;-81
2021/12/31 01:07:11;;;;;;;6.55;2.03;;;13.70;99.90;;;;;;5000873;28;20040;-80
2021/12/31 01:09:37;;;;;;;5.22;1.73;;;13.70;99.90;;;;;;4972846;28;20084;-81
2021/12/31 01:12:07;;;;;;;6.32;1.85;;;13.70;99.90;;;;;;5001510;28;20021;-80
2021/12/31 01:14:37;;;;;;;5.82;1.67;;;13.70;99.90;;;;;;5000461;28;20044;-80
2021/12/31 01:17:08;;;;;;;6.85;1.60;;;13.70;99.90;;;;;;5034904;28;20038;-80
2021/12/31 01:19:45;;;;;;;9.55;2.17;;;13.70;99.90;;;;;;5000499;28;20022;-81
2021/12/31 01:22:24;;;;;;;6.57;1.90;;;13.60;99.90;;;;;;4998754;28;20040;-82
2021/12/31 01:24:50;;;;;;;6.47;1.75;;;13.70;99.90;;;;;;4987380;28;20041;-82
2021/12/31 01:27:17;;;;;;;6.15;2.15;;;13.70;99.90;;;;;;5009944;28;20033;-84
2021/12/31 01:29:43;;;;;;;9.57;2.75;;;13.70;99.90;;;;;;5019299;28;20029;-83
2021/12/31 01:32:12;;;;;;;4.68;1.90;;;13.60;99.90;;;;;;5004780;28;20026;-83
2021/12/31 01:34:39;;;;;;;5.32;1.90;;;13.60;99.90;;;;;;4990956;28;20048;-83
2021/12/31 01:37:07;;;;;;;7.05;1.50;;;13.70;99.90;;;;;;5007097;28;20044;-83
2021/12/31 01:39:34;;;;;;;6.82;1.73;;;13.70;99.90;;;;;;4986546;28;20034;-83
2021/12/31 01:42:02;;;;;;;7.15;1.65;;;13.60;99.90;;;;;;4991294;28;20487;-83
2021/12/31 01:44:40;;;;;;;5.97;1.30;;;13.70;99.90;;;;;;4992566;28;20030;-83
2021/12/31 01:47:11;;;;;;;8.15;1.80;;;13.60;99.90;;;;;;4989112;28;20041;-83
2021/12/31 01:49:40;;;;;;;6.22;1.33;;;13.60;99.90;;;;;;5010523;28;20025;-83
2021/12/31 01:52:09;;;;;;;4.28;1.27;;;13.60;99.90;;;;;;5016512;28;20040;-82
2021/12/31 01:54:37;;;;;;;5.47;1.33;;;13.60;99.90;;;;;;5005570;28;20020;-79
2021/12/31 01:57:09;;;;;;;6.18;1.23;;;13.60;99.90;;;;;;5018460;28;20809;-79
2021/12/31 01:59:38;;;;;;;4.88;1.33;;;13.60;99.90;;;;;;5002608;28;20041;-80
2021/12/31 02:02:06;;;;;;;4.40;1.02;;;13.60;99.90;;;;;;4986478;28;20036;-79
2021/12/31 02:04:34;;;;;;;4.72;1.35;;;13.70;99.90;;;;;;5015776;28;20385;-80
2021/12/31 02:07:01;;;;;;;3.90;1.00;;;13.70;99.90;;;;;;5003664;28;20050;-80
2021/12/31 02:09:30;;;;;;;5.05;1.08;;;13.70;99.90;;;;;;5002406;28;20056;-80
2021/12/31 02:11:57;;;;;;;6.32;1.30;;;13.60;99.90;;;;;;5017206;28;20774;-82
2021/12/31 02:14:24;;;;;;;5.32;1.10;;;13.60;99.90;;;;;;5035111;28;20040;-82
2021/12/31 02:16:51;;;;;;;5.00;1.00;;;13.70;99.90;;;;;;5007682;28;20042;-82
2021/12/31 02:19:26;;;;;;;3.75;1.10;;;13.60;99.90;;;;;;5020966;28;20034;-82
2021/12/31 02:21:54;;;;;;;5.03;1.27;;;13.70;99.90;;;;;;5017917;28;20048;-82
2021/12/31 02:24:22;;;;;;;2.75;0.82;;;13.70;99.90;;;;;;5018663;28;20448;-79
2021/12/31 02:26:50;;;;;;;2.97;0.82;;;13.70;99.90;;;;;;5008339;28;20040;-82
2021/12/31 02:29:17;;;;;;;6.70;1.33;;;13.70;99.90;;;;;;5026278;28;20387;-82
2021/12/31 02:31:45;;;;;;;3.28;1.05;;;13.70;99.90;;;;;;4989870;28;20042;-82
2021/12/31 02:34:11;;;;;;;8.18;1.17;;;13.70;99.90;;;;;;5052681;28;20028;-82
2021/12/31 02:36:38;;;;;;;3.75;0.80;;;13.70;99.90;;;;;;5006082;28;20053;-79
2021/12/31 02:39:05;;;;;;;7.63;0.98;;;13.70;99.90;;;;;;5020721;28;20043;-79
2021/12/31 02:41:32;;;;;;;4.63;0.85;;;13.70;99.90;;;;;;5005621;28;20045;-81
2021/12/31 02:43:59;;;;;;;4.85;0.73;;;13.70;99.90;;;;;;5005899;28;20491;-81
2021/12/31 02:46:25;;;;;;;3.08;0.80;;;13.70;99.90;;;;;;4993449;28;20044;-82
2021/12/31 02:48:56;;;;;;;5.05;0.80;;;13.70;99.90;;;;;;5008895;28;21535;-81
2021/12/31 02:51:29;;;;;;;3.47;0.70;;;13.70;99.90;;;;;;4991532;28;20032;-81
2021/12/31 02:53:57;;;;;;;4.07;0.77;;;13.70;99.90;;;;;;5021296;28;20036;-82
2021/12/31 02:56:25;;;;;;;6.65;0.93;;;13.70;99.90;;;;;;5008498;28;20362;-82
2021/12/31 02:58:52;;;;;;;6.93;1.10;;;13.60;99.90;;;;;;5009072;28;20034;-82
2021/12/31 03:01:19;;;;;;;5.18;0.80;;;13.70;99.90;;;;;;5025490;28;20049;-82
2021/12/31 03:03:48;;;;;;;4.40;1.25;;;13.70;99.90;;;;;;4995536;28;20053;-82
2021/12/31 03:06:17;;;;;;;2.53;0.70;;;13.70;99.90;;;;;;5024918;28;20042;-82
2021/12/31 03:08:50;;;;;;;5.25;0.90;;;13.70;99.90;;;;;;5011325;28;20021;-82
2021/12/31 03:11:22;;;;;;;2.85;0.65;;;13.70;99.90;;;;;;5007030;28;20052;-82
2021/12/31 03:13:54;;;;;;;2.95;0.60;;;13.70;99.90;;;;;;4981979;28;20040;-82
2021/12/31 03:16:22;;;;;;;3.80;0.90;;;13.70;99.90;;;;;;5024660;28;20061;-81
2021/12/31 03:18:52;;;;;;;5.50;0.90;;;13.70;99.90;;;;;;5021951;28;20033;-82
2021/12/31 03:21:22;;;;;;;5.63;0.90;;;13.70;99.90;;;;;;5032266;28;20025;-80
2021/12/31 03:23:52;;;;;;;4.95;1.10;;;13.70;99.90;;;;;;4986744;28;20053;-80
2021/12/31 03:26:20;;;;;;;7.10;1.30;;;13.70;99.90;;;;;;5034536;28;20072;-80
2021/12/31 03:28:48;;;;;;;2.55;0.52;;;13.70;99.90;;;;;;5020305;28;20045;-83
2021/12/31 03:31:15;;;;;;;2.88;0.68;;;13.70;99.90;;;;;;5023335;28;20033;-83
2021/12/31 03:33:41;;;;;;;4.20;0.70;;;13.70;99.90;;;;;;5024615;28;20025;-80
2021/12/31 03:36:08;;;;;;;3.15;0.60;;;13.70;99.90;;;;;;5017076;28;20045;-80
2021/12/31 03:38:35;;;;;;;4.68;1.15;;;13.70;99.90;;;;;;4991259;28;20042;-80
2021/12/31 03:41:01;;;;;;;4.57;1.00;;;13.70;99.90;;;;;;5051103;28;20390;-80
2021/12/31 03:43:28;;;;;;;2.65;0.70;;;13.70;99.90;;;;;;5021460;28;20038;-83
2021/12/31 03:45:54;;;;;;;3.00;1.13;;;13.70;99.90;;;;;;5013385;28;20045;-83
2021/12/31 03:48:21;;;;;;;2.70;0.73;;;13.70;99.90;;;;;;4993224;28;20037;-83
2021/12/31 03:50:48;;;;;;;6.22;1.23;;;13.70;99.90;;;;;;5032833;28;20037;-80
2021/12/31 03:53:15;;;;;;;3.90;0.70;;;13.70;99.90;;;;;;5020680;28;20018;-80
2021/12/31 03:55:44;;;;;;;3.97;0.80;;;13.60;99.90;;;;;;5005701;28;20029;-80
2021/12/31 03:58:48;;;;;;;3.22;0.60;;;13.60;99.90;;;;;;4991583;28;20029;-80
2021/12/31 04:01:14;;;;;;;3.25;0.60;;;13.70;99.90;;;;;;5020810;28;20030;-80
2021/12/31 04:03:41;;;;;;;3.53;0.60;;;13.60;99.90;;;;;;5004093;28;20757;-80
2021/12/31 04:06:07;;;;;;;4.10;0.70;;;13.60;99.90;;;;;;5007911;28;20033;-80
2021/12/31 04:08:34;;;;;;;3.25;0.70;;;13.60;99.90;;;;;;5033286;28;20025;-80
2021/12/31 04:11:00;;;;;;;3.67;0.70;;;13.60;99.90;;;;;;5052888;28;20640;-80
2021/12/31 04:13:30;;;;;;;5.20;0.75;;;13.60;99.90;;;;;;5004444;28;20064;-80
2021/12/31 04:15:59;;;;;;;3.15;0.85;;;13.60;99.90;;;;;;5002440;28;20029;-80
2021/12/31 04:18:26;;;;;;;4.03;1.10;;;13.60;99.90;;;;;;5019775;28;20369;-79
2021/12/31 04:20:56;;;;;;;4.90;0.95;;;13.60;99.90;;;;;;5017305;28;20045;-79
2021/12/31 04:23:31;;;;;;;3.35;0.63;;;13.60;99.90;;;;;;5019812;28;20022;-79
2021/12/31 04:25:58;;;;;;;2.22;0.60;;;13.60;99.90;;;;;;5003648;28;20385;-80
2021/12/31 04:28:27;;;;;;;3.83;0.80;;;13.60;99.90;;;;;;5053159;28;20033;-79
2021/12/31 04:30:54;;;;;;;5.53;0.80;;;13.60;99.90;;;;;;5017778;28;20049;-79
2021/12/31 04:33:21;;;;;;;4.72;0.75;;;13.60;99.90;;;;;;4986373;28;20056;-79
2021/12/31 04:35:47;;;;;;;3.63;0.70;;;13.60;99.90;;;;;;5018850;28;20040;-79
2021/12/31 04:38:14;;;;;;;3.83;0.77;;;13.60;99.90;;;;;;5016552;28;20033;-79
2021/12/31 04:40:40;;;;;;;4.10;0.80;;;13.60;99.90;;;;;;5008507;28;20033;-82
2021/12/31 04:43:09;;;;;;;4.22;0.60;;;13.60;99.90;;;;;;4990442;28;20393;-82
2021/12/31 04:45:39;;;;;;;4.95;0.73;;;13.60;99.90;;;;;;5020703;28;20052;-83
2021/12/31 04:48:05;;;;;;;3.42;1.05;;;13.60;99.90;;;;;;4989343;28;20044;-82
2021/12/31 04:50:32;;;;;;;7.07;0.85;;;13.60;99.90;;;;;;4990760;28;20037;-83
2021/12/31 04:52:59;;;;;;;7.35;1.73;;;13.50;99.90;;;;;;5004192;28;20033;-82
2021/12/31 04:55:26;;;;;;;3.33;0.88;;;13.60;99.90;;;;;;4990796;28;20436;-82
2021/12/31 04:57:53;;;;;;;4.45;0.88;;;13.60;99.90;;;;;;5005396;28;20041;-83
2021/12/31 05:00:19;;;;;;;4.15;0.80;;;13.60;99.90;;;;;;4993021;28;20049;-83
2021/12/31 05:02:46;;;;;;;3.28;0.80;;;13.60;99.90;;;;;;5021289;28;20378;-83
2021/12/31 05:05:13;;;;;;;3.60;0.82;;;13.50;99.90;;;;;;5005582;28;20046;-79
2021/12/31 05:07:39;;;;;;;4.40;0.88;;;13.50;99.90;;;;;;4985381;28;20038;-79
2021/12/31 05:10:07;;;;;;;4.10;0.90;;;13.50;99.90;;;;;;5004951;28;20080;-80
2021/12/31 05:12:36;;;;;;;5.80;0.82;;;13.50;99.90;;;;;;4976111;28;20026;-82
2021/12/31 05:15:07;;;;;;;4.53;0.80;;;13.50;99.90;;;;;;5020550;28;20034;-80
2021/12/31 05:17:35;;;;;;;5.88;1.27;;;13.50;99.90;;;;;;5000217;28;20049;-79
2021/12/31 05:20:04;;;;;;;4.85;1.38;;;13.50;99.90;;;;;;5006239;28;20037;-82
2021/12/31 05:22:30;;;;;;;5.63;0.90;;;13.50;99.90;;;;;;5005025;28;20029;-79
2021/12/31 05:24:57;;;;;;;3.25;0.85;;;13.50;99.90;;;;;;5002816;28;20053;-79
2021/12/31 05:27:26;;;;;;;4.38;0.82;;;13.50;99.90;;;;;;5018441;28;20026;-79
2021/12/31 05:29:53;;;;;;;3.95;0.90;;;13.50;99.90;;;;;;5019790;28;20029;-79
2021/12/31 05:32:19;;;;;;;3.00;0.90;;;13.50;99.90;;;;;;5002716;28;20031;-79
2021/12/31 05:34:46;;;;;;;8.27;1.25;;;13.50;99.90;;;;;;4987991;28;20042;-80
2021/12/31 05:37:12;;;;;;;2.80;1.10;;;13.50;99.90;;;;;;4986148;28;20369;-80
2021/12/31 05:39:39;;;;;;;3.63;1.05;;;13.50;99.90;;;;;;4988627;28;20046;-79
2021/12/31 05:42:06;;;;;;;4.05;1.20;;;13.40;99.90;;;;;;5000054;28;20029;-79
2021/12/31 05:44:32;;;;;;;5.22;1.25;;;13.40;99.90;;;;;;5004696;28;20205;-79
2021/12/31 05:46:59;;;;;;;4.70;1.23;;;13.40;99.90;;;;;;5017433;28;20037;-83
2021/12/31 05:49:26;;;;;;;4.95;1.30;;;13.40;99.90;;;;;;5004431;28;20487;-83
2021/12/31 05:51:52;;;;;;;6.95;1.05;;;13.40;99.90;;;;;;5018290;28;20037;-83
2021/12/31 05:54:19;;;;;;;4.65;1.33;;;13.40;99.90;;;;;;5021566;28;20037;-83
2021/12/31 05:56:45;;;;;;;6.07;1.25;;;13.30;99.90;;;;;;4990095;28;20813;-83
2021/12/31 05:59:12;;;;;;;6.25;1.23;;;13.30;99.90;;;;;;4989333;28;20049;-83
2021/12/31 06:01:38;;;;;;;3.20;1.17;;;13.30;99.90;;;;;;5020111;28;20037;-83
2021/12/31 06:04:06;;;;;;;7.03;1.23;;;13.30;99.90;;;;;;5032820;28;20934;-83
2021/12/31 06:06:32;;;;;;;6.45;1.40;;;13.30;99.90;;;;;;5003558;28;20029;-80
2021/12/31 06:08:59;;;;;;;4.85;1.10;;;13.30;99.90;;;;;;5016925;28;20041;-80
2021/12/31 06:11:28;;;;;;;5.63;1.38;;;13.30;99.90;;;;;;5002741;28;20038;-84
2021/12/31 06:14:01;;;;;;;2.95;1.00;;;13.30;99.90;;;;;;5006249;28;20034;-83
2021/12/31 06:16:29;;;;;;;4.75;0.98;;;13.30;99.90;;;;;;5030561;28;20030;-83
2021/12/31 06:18:55;;;;;;;4.10;1.30;;;13.30;99.90;;;;;;5007287;28;20038;-84
2021/12/31 06:21:22;;;;;;;3.05;0.82;;;13.30;99.90;;;;;;5034225;28;20041;-84
2021/12/31 06:23:49;;;;;;;7.80;1.48;;;13.30;99.90;;;;;;4976058;28;21173;-84
2021/12/31 06:26:15;;;;;;;5.68;1.38;;;13.30;99.90;;;;;;5008414;28;20044;-83
2021/12/31 06:28:41;;;;;;;5.68;1.58;;;13.30;99.90;;;;;;5024405;28;20038;-84
2021/12/31 06:31:11;;;;;;;4.60;1.67;;;13.30;99.90;;;;;;5007816;28;20042;-84
2021/12/31 06:33:38;;;;;;;5.30;1.20;;;13.30;99.90;;;;;;5021618;28;20389;-81
2021/12/31 06:36:05;;;;;;;5.07;1.23;;;13.30;99.90;;;;;;5019316;28;20037;-81
2021/12/31 06:38:31;;;;;;;3.88;1.17;;;13.30;99.90;;;;;;4983856;28;20054;-81
2021/12/31 06:40:58;;;;;;;3.83;1.10;;;13.30;99.90;;;;;;5017292;28;20041;-81
2021/12/31 06:43:24;;;;;;;4.28;1.10;;;13.20;99.90;;;;;;5002005;28;20038;-81
2021/12/31 06:45:51;;;;;;;5.93;1.00;;;13.10;99.90;;;;;;4988050;28;20037;-81
2021/12/31 06:48:18;;;;;;;6.65;0.98;;;13.10;99.90;;;;;;4999445;28;20021;-81
2021/12/31 06:50:44;;;;;;;3.70;1.20;;;13.00;99.90;;;;;;5005846;28;20029;-81
2021/12/31 06:53:11;;;;;;;4.50;1.33;;;13.00;99.90;;;;;;5014999;28;20033;-81
2021/12/31 06:55:37;;;;;;;4.13;1.10;;;12.90;99.90;;;;;;4989108;28;20034;-81
2021/12/31 06:58:04;;;;;;;4.15;0.95;;;12.80;99.90;;;;;;5048497;28;20033;-81
2021/12/31 07:00:31;;;;;;;6.15;1.10;;;12.70;99.90;;;;;;5002728;28;20037;-80
2021/12/31 07:03:08;;;;;;;5.90;1.20;;;12.70;99.90;;;;;;4984732;28;20041;-78
2021/12/31 07:05:35;;;;;;;4.18;1.75;;;12.70;99.90;;;;;;5029665;28;20053;-78
2021/12/31 07:08:04;;;;;;;5.35;1.20;;;12.60;99.90;;;;;;5003579;28;20783;-81
2021/12/31 07:10:31;;;;;;;5.18;1.25;;;12.60;99.90;;;;;;4987976;28;20042;-83
2021/12/31 07:13:05;;;;;;;6.80;1.35;;;12.50;99.90;;;;;;5015249;28;20052;-79
2021/12/31 07:15:32;;;;;;;5.23;1.87;;;12.50;99.90;;;;;;5022660;28;20029;-79
2021/12/31 07:17:58;;;;;;;6.25;2.17;;;12.50;99.90;;;;;;4989652;28;20041;-79
2021/12/31 07:20:25;;;;;;;4.95;1.92;;;12.50;99.90;;;;;;4994303;28;20544;-83
2021/12/31 07:22:51;;;;;;;3.28;1.38;;;12.50;99.90;;;;;;4979722;28;20044;-82
2021/12/31 07:25:18;;;;;;;5.72;1.25;;;12.40;99.90;;;;;;5038432;28;20041;-83
2021/12/31 07:27:50;;;;;;;5.07;1.23;;;12.40;99.90;;;;;;5010546;28;20030;-83
2021/12/31 07:30:17;;;;;;;2.83;1.13;;;12.40;99.90;;;;;;4998542;28;20046;-83
2021/12/31 07:32:44;;;;;;;4.05;1.10;;;12.40;99.90;;;;;;5011048;28;20045;-83
2021/12/31 07:35:10;;;;;;;4.18;1.17;;;12.40;99.90;;;;;;5025746;28;20356;-83
2021/12/31 07:37:37;;;;;;;4.50;1.20;;;12.40;99.90;;;;;;5041304;28;20028;-83
2021/12/31 07:40:06;;;;;;;3.70;1.00;;;12.30;99.90;;;;;;5028920;28;20033;-83
2021/12/31 07:42:33;;;;;;;4.63;1.40;;;12.30;99.90;;;;;;5028732;28;20051;-83
2021/12/31 07:45:00;;;;;;;5.78;1.15;;;12.30;99.90;;;;;;5016086;28;20041;-83
2021/12/31 07:47:27;;;;;;;4.20;1.10;;;12.20;99.90;;;;;;5032285;28;20029;-83
2021/12/31 07:49:53;;;;;;;3.58;1.23;;;12.30;99.90;;;;;;4999231;28;20040;-82
2021/12/31 07:52:20;;;;;;;4.20;1.23;;;12.20;99.90;;;;;;4999939;28;20030;-82
2021/12/31 07:54:46;;;;;;;5.20;1.60;;;12.20;99.90;;;;;;5029531;28;20034;-83
2021/12/31 07:57:13;;;;;;;5.00;1.90;;;12.30;99.90;;;;;;5012633;28;20045;-83
2021/12/31 07:59:39;;;;;;;4.65;1.60;;;12.30;99.90;;;;;;5029359;28;20036;-83
2021/12/31 08:02:06;;;;;;;3.67;1.08;;;12.30;99.90;;;;;;5012618;28;20034;-83
2021/12/31 08:04:33;;;;;;;7.00;1.58;;;12.30;99.90;;;;;;5031389;28;20050;-82
2021/12/31 08:07:00;;;;;;;6.55;1.58;;;12.30;99.90;;;;;;4997101;28;20381;-83
2021/12/31 08:09:26;;;;;;;3.83;1.13;;;12.30;99.90;;;;;;5035427;28;20026;-83
2021/12/31 08:11:53;;;;;;;6.18;1.70;;;12.30;99.90;;;;;;5013366;28;20030;-80
2021/12/31 08:14:20;;;;;;;3.45;1.23;;;12.30;99.90;;;;;;5018919;28;20041;-80
2021/12/31 08:16:46;;;;;;;6.13;1.70;;;12.30;99.90;;;;;;5005063;28;20029;-80
2021/12/31 08:19:12;;;;;;;7.82;1.35;;;12.20;99.90;;;;;;5006864;28;20049;-82
2021/12/31 08:21:39;;;;;;;5.75;1.50;;;12.20;99.90;;;;;;4985457;28;20049;-82
2021/12/31 08:24:06;;;;;;;5.53;1.58;;;12.20;99.90;;;;;;5024099;28;20030;-82
2021/12/31 08:26:32;;;;;;;9.48;1.70;;;12.20;99.90;;;;;;5009014;28;20045;-80
2021/12/31 08:28:58;;;;;;;7.47;1.80;;;12.20;99.90;;;;;;4990250;28;20046;-80
2021/12/31 08:31:25;;;;;;;5.45;1.55;;;12.20;99.90;;;;;;5005651;28;20029;-82
2021/12/31 08:33:51;;;;;;;4.28;1.10;;;12.20;99.90;;;;;;5008319;28;20041;-78
2021/12/31 08:36:18;;;;;;;5.35;1.83;;;12.30;99.90;;;;;;5024279;28;20036;-80
2021/12/31 08:38:44;;;;;;;5.13;2.80;;;12.30;99.90;;;;;;4989358;28;20040;-80
2021/12/31 08:41:11;;;;;;;5.47;2.83;;;12.30;99.90;;;;;;4992873;28;20393;-80
2021/12/31 08:43:37;;;;;;;7.18;2.50;;;12.30;99.90;;;;;;4972111;28;20057;-79
2021/12/31 08:46:04;;;;;;;4.38;2.20;;;12.30;99.90;;;;;;5025855;28;20041;-81
2021/12/31 08:48:31;;;;;;;5.05;2.03;;;12.40;99.90;;;;;;5020917;28;20030;-83
2021/12/31 08:50:57;;;;;;;4.78;2.08;;;12.30;99.90;;;;;;5009419;28;20065;-83
2021/12/31 08:53:24;;;;;;;4.28;1.65;;;12.40;99.90;;;;;;5008188;28;20040;-84
2021/12/31 08:55:50;;;;;;;6.40;2.67;;;12.40;99.90;;;;;;5007705;28;20037;-84
2021/12/31 08:58:16;;;;;;;4.43;1.88;;;12.40;99.90;;;;;;4994014;28;20042;-83
2021/12/31 09:00:43;;;;;;;6.35;1.23;;;12.40;99.90;;;;;;4974312;28;20136;-83
2021/12/31 09:03:10;;;;;;;3.38;1.30;;;12.40;99.90;;;;;;4993090;28;20060;-83
2021/12/31 09:05:36;;;;;;;5.22;1.00;;;12.40;99.90;;;;;;5007276;28;20046;-83
2021/12/31 09:08:03;;;;;;;3.92;1.10;;;12.40;99.90;;;;;;4991659;28;20041;-81
2021/12/31 09:10:29;;;;;;;4.32;1.17;;;12.40;99.90;;;;;;5031436;28;20032;-81
2021/12/31 09:12:57;;;;;;;4.05;1.10;;;12.50;99.90;;;;;;4985715;28;21484;-81
2021/12/31 09:15:23;;;;;;;2.83;1.20;;;12.50;99.90;;;;;;5017094;28;20044;-81
2021/12/31 09:17:50;;;;;;;3.40;1.50;;;12.50;99.90;;;;;;5000807;28;20025;-80
2021/12/31 09:20:17;;;;;;;5.25;2.58;;;12.50;99.90;;;;;;5015271;28;20853;-80
2021/12/31 09:22:43;;;;;;;4.60;2.45;;;12.50;99.90;;;;;;5031297;28;20377;-81
2021/12/31 09:25:10;;;;;;;5.10;1.92;;;12.60;99.90;;;;;;5004104;28;20042;-81
2021/12/31 09:27:36;;;;;;;4.00;1.33;;;12.60;99.90;;;;;;5002537;28;20049;-81
2021/12/31 09:30:03;;;;;;;2.13;1.02;;;12.60;99.90;;;;;;5002853;28;20037;-80
2021/12/31 09:32:30;;;;;;;5.55;1.40;;;12.60;99.90;;;;;;4973094;28;20041;-82
2021/12/31 09:34:56;;;;;;;3.30;1.27;;;12.60;99.90;;;;;;5003327;28;20032;-79
2021/12/31 09:37:23;;;;;;;3.00;1.30;;;12.60;99.90;;;;;;4988076;28;20049;-80
2021/12/31 09:39:49;;;;;;;5.22;1.88;;;12.60;99.90;;;;;;5002564;28;20041;-79
2021/12/31 09:42:16;;;;;;;2.90;1.27;;;12.70;99.90;;;;;;4984878;28;20892;-81
2021/12/31 09:44:48;;;;;;;4.18;1.83;;;12.60;99.90;;;;;;5004940;28;20049;-80
2021/12/31 09:47:16;;;;;;;4.18;1.60;;;12.70;99.90;;;;;;5020316;28;20384;-80
2021/12/31 09:49:44;;;;;;;4.40;1.25;;;12.70;99.90;;;;;;5003463;28;20045;-80
2021/12/31 09:52:13;;;;;;;3.22;1.20;;;12.70;99.90;;;;;;5018422;28;20033;-81
2021/12/31 09:54:41;;;;;;;3.50;1.20;;;12.70;99.90;;;;;;5021352;28;20508;-81
2021/12/31 09:57:16;;;;;;;2.03;0.98;;;12.80;99.90;;;;;;5005524;28;20488;-81
2021/12/31 09:59:43;;;;;;;3.28;1.77;;;12.80;99.90;;;;;;4984279;28;20462;-79
2021/12/31 10:02:10;;;;;;;4.57;1.60;;;12.80;99.90;;;;;;4988247;28;20041;-80
2021/12/31 10:04:51;;;;;;;5.22;1.60;;;13.00;99.90;;;;;;5004321;28;20523;-80
2021/12/31 10:07:21;;;;;;;4.45;1.70;;;13.00;99.90;;;;;;5033563;28;20508;-81
2021/12/31 10:10:08;;;;;;;4.70;1.52;;;13.10;99.90;;;;;;4987728;28;20045;-80
2021/12/31 10:12:44;;;;;;;7.00;1.63;;;13.10;99.90;;;;;;5017682;28;20045;-80
2021/12/31 10:15:10;;;;;;;6.72;1.30;;;13.10;99.90;;;;;;5032210;28;20052;-80
2021/12/31 10:17:37;;;;;;;4.15;1.17;;;13.10;99.90;;;;;;5018881;28;20061;-80
2021/12/31 10:20:04;;;;;;;3.33;1.40;;;13.10;99.90;;;;;;5015430;28;20037;-80
2021/12/31 10:22:30;;;;;;;3.05;1.38;;;13.10;99.90;;;;;;5017274;28;20041;-81
2021/12/31 10:24:58;;;;;;;3.88;1.15;;;13.10;99.90;;;;;;4988302;28;20041;-81
2021/12/31 10:27:25;;;;;;;5.15;1.58;;;13.10;99.90;;;;;;5004325;28;20041;-80
2021/12/31 10:30:03;;;;;;;5.57;1.33;;;13.10;99.90;;;;;;4970055;28;20034;-80
2021/12/31 10:32:40;;;;;;;3.80;1.08;;;13.00;99.90;;;;;;5005694;28;20025;-79
2021/12/31 10:35:24;;;;;;;3.75;1.05;;;13.00;99.90;;;;;;5019988;28;20037;-80
2021/12/31 10:37:57;;;;;;;2.97;1.13;;;13.00;99.90;;;;;;5016233;28;20048;-79
2021/12/31 10:40:36;;;;;;;4.65;2.63;;;13.00;99.90;;;;;;5020807;28;20810;-79
2021/12/31 10:43:21;;;;;;;4.45;1.90;;;13.00;99.90;;;;;;5003996;28;20032;-80
2021/12/31 10:46:08;;;;;;;7.20;4.80;;;13.00;99.90;;;;;;5001070;28;20034;-80
2021/12/31 10:48:37;;;;;;;3.42;2.13;;;13.10;99.90;;;;;;5006049;28;20109;-79
2021/12/31 10:51:04;;;;;;;4.70;1.65;;;13.10;99.90;;;;;;4992308;28;20034;-79
2021/12/31 10:53:34;;;;;;;3.63;1.60;;;13.10;99.90;;;;;;5032918;28;20479;-80
2021/12/31 10:56:06;;;;;;;4.82;2.00;;;13.10;99.90;;;;;;5010914;28;20040;-80
2021/12/31 10:58:34;;;;;;;2.45;1.30;;;13.20;99.90;;;;;;5023795;28;20034;-79
2021/12/31 11:01:05;;;;;;;4.85;1.60;;;13.30;99.90;;;;;;5006563;28;20485;-80
2021/12/31 11:03:35;;;;;;;3.03;1.30;;;13.30;99.90;;;;;;4992728;28;20028;-80
2021/12/31 11:06:07;;;;;;;2.55;1.10;;;13.30;99.90;;;;;;5003085;28;20137;-80
2021/12/31 11:08:35;;;;;;;5.65;1.50;;;13.40;99.90;;;;;;5005560;28;20045;-80
2021/12/31 11:11:02;;;;;;;5.28;1.38;;;13.30;99.90;;;;;;5003741;28;20020;-80
2021/12/31 11:13:32;;;;;;;4.43;1.88;;;13.30;99.90;;;;;;5002362;28;20033;-80
2021/12/31 11:16:00;;;;;;;4.47;1.00;;;13.30;99.90;;;;;;5020647;28;20481;-80
2021/12/31 11:18:28;;;;;;;3.80;1.15;;;13.30;99.90;;;;;;5019912;28;20380;-81
2021/12/31 11:21:09;;;;;;;3.92;1.60;;;13.30;99.90;;;;;;5018892;28;20033;-79
2021/12/31 11:23:40;;;;;;;4.50;1.73;;;13.30;99.90;;;;;;5003050;28;20504;-79
2021/12/31 11:26:10;;;;;;;4.60;1.95;;;13.40;99.90;;;;;;4990186;28;20041;-80
2021/12/31 11:28:41;;;;;;;3.83;1.40;;;13.40;99.90;;;;;;5017184;28;20041;-79
2021/12/31 11:31:20;;;;;;;6.65;1.42;;;13.40;99.90;;;;;;5000984;28;20025;-79
2021/12/31 11:34:09;;;;;;;5.40;1.10;;;13.50;99.90;;;;;;5019814;28;20021;-79
2021/12/31 11:36:51;;;;;;;3.70;1.52;;;13.50;99.90;;;;;;4989486;28;20021;-82
2021/12/31 11:39:18;;;;;;;;;;;13.60;99.90;;;;;;4988606;28;20033;-81
2021/12/31 11:41:44;;;;;;;3.75;1.08;;;13.70;99.90;;;;;;5016125;28;20287;-76
2021/12/31 11:44:13;;;;;;;4.50;1.25;;;13.70;99.90;;;;;;4984211;28;20044;-81
2021/12/31 11:46:41;;;;;;;5.63;1.52;;;13.80;99.90;;;;;;5015010;28;20523;-83
2021/12/31 11:49:21;;;;;;;4.65;1.02;;;13.90;99.90;;;;;;4986500;28;20396;-80
2021/12/31 11:52:05;;;;;;;7.18;3.85;;;13.90;99.90;;;;;;4984782;28;20025;-80
2021/12/31 11:54:33;;;;;;;5.30;2.70;;;13.90;99.90;;;;;;5004098;28;20040;-81
2021/12/31 11:57:02;;;;;;;5.75;2.92;;;13.90;99.90;;;;;;5001659;28;20025;-81
2021/12/31 11:59:31;;;;;;;3.75;1.55;;;13.80;99.90;;;;;;5016946;28;20041;-80
2021/12/31 12:02:08;;;;;;;5.45;1.92;;;13.80;99.90;;;;;;5014277;28;20038;-78
2021/12/31 12:04:44;;;;;;;5.13;1.83;;;13.80;99.90;;;;;;5014512;28;20045;-78
2021/12/31 12:07:31;;;;;;;8.68;3.35;;;13.90;99.90;;;;;;5022172;28;20042;-79
2021/12/31 12:09:58;;;;;;;6.32;3.08;;;14.00;99.90;;;;;;5015536;28;20583;-81
2021/12/31 12:12:26;;;;;;;6.43;3.10;;;14.00;99.90;;;;;;5003656;28;20030;-82
2021/12/31 12:14:55;;;;;;;5.03;2.53;;;14.00;99.90;;;;;;5047775;28;20192;-81
2021/12/31 12:17:31;;;;;;;5.32;2.17;;;13.90;99.90;;;;;;5002349;28;20021;-81
2021/12/31 12:19:57;;;;;;;4.13;1.63;;;13.90;99.90;;;;;;4985978;28;20472;-81
2021/12/31 12:22:27;;;;;;;6.13;1.95;;;13.80;99.90;;;;;;5016867;28;20385;-80
2021/12/31 12:24:56;;;;;;;4.25;1.45;;;13.80;99.90;;;;;;5018805;28;20037;-81
2021/12/31 12:27:24;;;;;;;3.88;1.70;;;13.80;99.90;;;;;;5003807;28;20045;-81
2021/12/31 12:29:55;;;;;;;4.00;2.00;;;13.80;99.90;;;;;;5013563;28;20381;-81
2021/12/31 12:35:12;;;;;;;5.10;1.65;;;13.90;99.90;;;;;;5019690;28;20476;-81
2021/12/31 12:37:40;;;;;;;3.40;1.58;;;13.80;99.90;;;;;;5032876;28;20045;-81
2021/12/31 12:40:07;;;;;;;4.03;1.55;;;13.90;99.90;;;;;;4986019;28;20033;-81
2021/12/31 12:42:34;;;;;;;4.25;2.03;;;14.00;99.90;;;;;;4983832;28;20029;-81
2021/12/31 12:45:04;;;;;;;8.20;1.88;;;14.00;99.90;;;;;;5010205;28;22415;-81
2021/12/31 12:47:30;;;;;;;4.32;1.67;;;14.10;99.90;;;;;;5016812;28;20026;-81
2021/12/31 12:49:59;;;;;;;8.55;3.17;;;14.10;99.90;;;;;;4984569;28;20046;-81
2021/12/31 12:52:26;;;;;;;6.10;2.55;;;14.20;99.90;;;;;;5000924;28;20371;-82
2021/12/31 12:55:10;;;;;;;12.25;5.28;;;14.10;99.90;;;;;;5017353;28;20044;-82
2021/12/31 12:57:37;;;;;;;11.18;4.90;;;14.10;99.90;;;;;;5017224;28;20021;-82
2021/12/31 13:00:05;;;;;;;11.25;5.47;;;14.20;99.90;;;;;;5005250;28;20387;-82